sensor_id;sensor_type;location;lat;lon;timestamp;pressure;altitude;pressure_sealevel;temperature;humidity
22753;BME280;11543;43.144;24.684;2023-03-16T00:30:37;97947.31;;;9.90;63.04
22753;BME280;11543;43.144;24.684;2023-03-16T00:33:10;97947.56;;;9.65;63.72
22753;BME280;11543;43.144;24.684;2023-03-16T00:35:56;97942.88;;;9.42;63.72
22753;BME280;11543;43.144;24.684;2023-03-16T00:38:50;97951.25;;;9.39;64.05
22753;BME280;11543;43.144;24.684;2023-03-16T00:41:19;97946.41;;;9.35;63.91
22753;BME280;11543;43.144;24.684;2023-03-16T00:43:47;97961.13;;;9.47;63.88
22753;BME280;11543;43.144;24.684;2023-03-16T00:46:16;97937.53;;;9.58;63.39
22753;BME280;11543;43.144;24.684;2023-03-16T00:48:51;97936.53;;;9.35;63.63
22753;BME280;11543;43.144;24.684;2023-03-16T00:51:22;97942.94;;;9.10;64.43
22753;BME280;11543;43.144;24.684;2023-03-16T00:53:58;97968.00;;;9.25;64.37
22753;BME280;11543;43.144;24.684;2023-03-16T00:56:23;97942.56;;;9.29;63.86
22753;BME280;11543;43.144;24.684;2023-03-16T00:58:52;97969.34;;;9.37;63.91
22753;BME280;11543;43.144;24.684;2023-03-16T01:01:22;97955.63;;;9.24;63.96
22753;BME280;11543;43.144;24.684;2023-03-16T01:03:48;97964.47;;;9.33;63.50
22753;BME280;11543;43.144;24.684;2023-03-16T01:06:15;97959.97;;;9.33;63.92
22753;BME280;11543;43.144;24.684;2023-03-16T01:08:42;97971.69;;;9.24;63.80
22753;BME280;11543;43.144;24.684;2023-03-16T01:11:16;97971.84;;;9.14;64.24
22753;BME280;11543;43.144;24.684;2023-03-16T01:13:43;97981.06;;;9.04;64.78
22753;BME280;11543;43.144;24.684;2023-03-16T01:16:11;97979.03;;;8.89;64.99
22753;BME280;11543;43.144;24.684;2023-03-16T01:18:37;97988.06;;;8.88;65.62
22753;BME280;11543;43.144;24.684;2023-03-16T01:21:05;97986.72;;;8.84;65.60
22753;BME280;11543;43.144;24.684;2023-03-16T01:23:32;97987.06;;;8.89;65.98
22753;BME280;11543;43.144;24.684;2023-03-16T01:25:58;97986.56;;;8.94;65.87
22753;BME280;11543;43.144;24.684;2023-03-16T01:28:31;97973.66;;;8.73;66.05
22753;BME280;11543;43.144;24.684;2023-03-16T01:31:03;97967.94;;;8.60;66.19
22753;BME280;11543;43.144;24.684;2023-03-16T01:33:35;97991.38;;;8.74;66.28
22753;BME280;11543;43.144;24.684;2023-03-16T01:36:29;98000.19;;;8.58;66.75
22753;BME280;11543;43.144;24.684;2023-03-16T01:49:56;98011.69;;;8.51;66.36
22753;BME280;11543;43.144;24.684;2023-03-16T02:07:51;98038.06;;;8.12;66.93
22753;BME280;11543;43.144;24.684;2023-03-16T02:10:43;98023.09;;;7.93;67.10
22753;BME280;11543;43.144;24.684;2023-03-16T02:13:22;98017.75;;;7.93;66.94
22753;BME280;11543;43.144;24.684;2023-03-16T02:16:03;98045.81;;;7.97;67.17
22753;BME280;11543;43.144;24.684;2023-03-16T02:18:30;98048.34;;;7.98;67.44
22753;BME280;11543;43.144;24.684;2023-03-16T02:24:27;98050.44;;;7.87;66.94
22753;BME280;11543;43.144;24.684;2023-03-16T02:27:01;98053.78;;;7.89;67.64
22753;BME280;11543;43.144;24.684;2023-03-16T02:29:52;98059.84;;;7.99;67.23
22753;BME280;11543;43.144;24.684;2023-03-16T02:32:22;98056.09;;;7.84;67.78
22753;BME280;11543;43.144;24.684;2023-03-16T02:34:53;98053.66;;;7.73;67.71
22753;BME280;11543;43.144;24.684;2023-03-16T02:37:19;98058.78;;;7.66;68.15
22753;BME280;11543;43.144;24.684;2023-03-16T02:39:46;98049.88;;;7.57;68.79
22753;BME280;11543;43.144;24.684;2023-03-16T02:42:27;98054.91;;;7.60;69.09
22753;BME280;11543;43.144;24.684;2023-03-16T02:45:02;98067.16;;;7.71;68.99
22753;BME280;11543;43.144;24.684;2023-03-16T02:47:42;98041.19;;;7.55;69.07
22753;BME280;11543;43.144;24.684;2023-03-16T02:50:10;98050.50;;;7.51;69.68
22753;BME280;11543;43.144;24.684;2023-03-16T02:52:37;98066.19;;;7.54;69.64
22753;BME280;11543;43.144;24.684;2023-03-16T02:55:05;98065.88;;;7.57;69.62
22753;BME280;11543;43.144;24.684;2023-03-16T02:57:31;98087.84;;;7.51;69.50
22753;BME280;11543;43.144;24.684;2023-03-16T02:59:56;98080.09;;;7.40;69.55
22753;BME280;11543;43.144;24.684;2023-03-16T03:02:26;98067.28;;;7.26;69.77
22753;BME280;11543;43.144;24.684;2023-03-16T03:04:54;98066.69;;;7.32;69.67
22753;BME280;11543;43.144;24.684;2023-03-16T03:07:22;98098.16;;;7.46;69.34
22753;BME280;11543;43.144;24.684;2023-03-16T03:09:58;98088.78;;;7.42;69.08
22753;BME280;11543;43.144;24.684;2023-03-16T03:12:29;98089.78;;;7.41;68.64
22753;BME280;11543;43.144;24.684;2023-03-16T03:14:58;98099.06;;;7.37;68.63
22753;BME280;11543;43.144;24.684;2023-03-16T03:17:32;98115.25;;;7.35;68.68
22753;BME280;11543;43.144;24.684;2023-03-16T03:20:10;98101.91;;;7.18;68.93
22753;BME280;11543;43.144;24.684;2023-03-16T03:23:19;98129.34;;;7.28;69.12
22753;BME280;11543;43.144;24.684;2023-03-16T03:25:45;98114.38;;;6.99;69.23
22753;BME280;11543;43.144;24.684;2023-03-16T03:28:12;98132.00;;;7.10;69.20
22753;BME280;11543;43.144;24.684;2023-03-16T03:30:38;98139.25;;;7.18;69.49
22753;BME280;11543;43.144;24.684;2023-03-16T03:33:04;98128.03;;;6.96;69.27
22753;BME280;11543;43.144;24.684;2023-03-16T03:35:29;98144.41;;;7.01;69.21
22753;BME280;11543;43.144;24.684;2023-03-16T03:37:55;98147.53;;;6.97;69.59
22753;BME280;11543;43.144;24.684;2023-03-16T03:40:21;98165.16;;;7.08;69.43
22753;BME280;11543;43.144;24.684;2023-03-16T03:42:47;98141.91;;;6.90;70.11
22753;BME280;11543;43.144;24.684;2023-03-16T03:45:13;98149.22;;;6.88;70.13
22753;BME280;11543;43.144;24.684;2023-03-16T03:47:40;98160.88;;;6.87;70.61
22753;BME280;11543;43.144;24.684;2023-03-16T03:50:07;98166.22;;;6.87;71.78
22753;BME280;11543;43.144;24.684;2023-03-16T03:52:33;98175.59;;;6.91;71.60
22753;BME280;11543;43.144;24.684;2023-03-16T03:54:58;98154.56;;;6.88;71.59
22753;BME280;11543;43.144;24.684;2023-03-16T03:57:24;98164.69;;;6.85;71.12
22753;BME280;11543;43.144;24.684;2023-03-16T03:59:49;98170.56;;;6.88;71.00
22753;BME280;11543;43.144;24.684;2023-03-16T04:02:15;98166.69;;;6.73;71.06
22753;BME280;11543;43.144;24.684;2023-03-16T04:04:41;98187.72;;;6.76;71.50
22753;BME280;11543;43.144;24.684;2023-03-16T04:07:10;98196.78;;;6.56;71.48
22753;BME280;11543;43.144;24.684;2023-03-16T04:09:36;98195.69;;;6.49;71.71
22753;BME280;11543;43.144;24.684;2023-03-16T04:12:03;98197.25;;;6.42;71.79
22753;BME280;11543;43.144;24.684;2023-03-16T04:14:29;98203.00;;;6.47;72.00
22753;BME280;11543;43.144;24.684;2023-03-16T04:27:31;98187.66;;;6.02;73.28
22753;BME280;11543;43.144;24.684;2023-03-16T04:51:33;98229.09;;;5.56;75.23
22753;BME280;11543;43.144;24.684;2023-03-16T04:53:58;98238.34;;;5.52;75.77
22753;BME280;11543;43.144;24.684;2023-03-16T04:56:24;98246.03;;;5.55;75.94
22753;BME280;11543;43.144;24.684;2023-03-16T04:58:49;98250.97;;;5.69;76.10
22753;BME280;11543;43.144;24.684;2023-03-16T05:01:15;98247.03;;;5.54;76.99
22753;BME280;11543;43.144;24.684;2023-03-16T05:03:41;98257.97;;;5.61;77.04
22753;BME280;11543;43.144;24.684;2023-03-16T05:06:07;98270.56;;;5.68;77.38
22753;BME280;11543;43.144;24.684;2023-03-16T05:08:34;98264.94;;;5.52;77.17
22753;BME280;11543;43.144;24.684;2023-03-16T05:11:00;98261.31;;;5.53;77.48
22753;BME280;11543;43.144;24.684;2023-03-16T05:13:26;98260.19;;;5.56;77.45
22753;BME280;11543;43.144;24.684;2023-03-16T05:15:52;98277.69;;;5.58;77.35
22753;BME280;11543;43.144;24.684;2023-03-16T05:18:21;98275.59;;;5.52;78.03
22753;BME280;11543;43.144;24.684;2023-03-16T05:24:27;98308.06;;;5.46;77.62
22753;BME280;11543;43.144;24.684;2023-03-16T05:26:53;98326.84;;;5.54;77.48
22753;BME280;11543;43.144;24.684;2023-03-16T05:29:18;98304.72;;;5.54;77.88
22753;BME280;11543;43.144;24.684;2023-03-16T05:31:44;98325.75;;;5.66;77.09
22753;BME280;11543;43.144;24.684;2023-03-16T05:34:11;98321.53;;;5.54;77.02
22753;BME280;11543;43.144;24.684;2023-03-16T05:36:37;98332.75;;;5.67;76.85
22753;BME280;11543;43.144;24.684;2023-03-16T05:39:42;98341.44;;;5.69;76.15
22753;BME280;11543;43.144;24.684;2023-03-16T05:42:08;98336.66;;;5.63;76.38
22753;BME280;11543;43.144;24.684;2023-03-16T05:44:36;98327.97;;;5.61;76.67
22753;BME280;11543;43.144;24.684;2023-03-16T05:47:01;98320.44;;;5.66;75.96
22753;BME280;11543;43.144;24.684;2023-03-16T05:49:27;98325.75;;;5.66;76.17
22753;BME280;11543;43.144;24.684;2023-03-16T05:51:53;98322.97;;;5.68;75.43
22753;BME280;11543;43.144;24.684;2023-03-16T05:54:19;98334.88;;;5.83;75.26
22753;BME280;11543;43.144;24.684;2023-03-16T05:56:44;98343.47;;;5.96;75.36
22753;BME280;11543;43.144;24.684;2023-03-16T05:59:10;98346.00;;;5.98;75.01
22753;BME280;11543;43.144;24.684;2023-03-16T06:01:35;98365.06;;;6.03;74.72
22753;BME280;11543;43.144;24.684;2023-03-16T06:04:01;98374.28;;;5.89;74.78
22753;BME280;11543;43.144;24.684;2023-03-16T06:06:29;98364.84;;;5.75;75.15
22753;BME280;11543;43.144;24.684;2023-03-16T06:08:55;98366.38;;;5.68;74.46
22753;BME280;11543;43.144;24.684;2023-03-16T06:11:21;98372.53;;;5.69;75.11
22753;BME280;11543;43.144;24.684;2023-03-16T06:13:48;98395.22;;;5.63;75.04
22753;BME280;11543;43.144;24.684;2023-03-16T06:16:14;98378.09;;;5.56;75.49
22753;BME280;11543;43.144;24.684;2023-03-16T06:18:41;98387.63;;;5.59;75.46
22753;BME280;11543;43.144;24.684;2023-03-16T06:21:07;98392.22;;;5.47;76.00
22753;BME280;11543;43.144;24.684;2023-03-16T06:23:32;98410.31;;;5.53;76.24
22753;BME280;11543;43.144;24.684;2023-03-16T06:25:58;98402.41;;;5.42;76.89
22753;BME280;11543;43.144;24.684;2023-03-16T06:28:24;98392.03;;;5.39;76.96
22753;BME280;11543;43.144;24.684;2023-03-16T06:30:54;98388.75;;;5.26;77.41
22753;BME280;11543;43.144;24.684;2023-03-16T06:33:20;98405.00;;;5.23;78.37
22753;BME280;11543;43.144;24.684;2023-03-16T06:35:46;98404.06;;;5.12;78.59
22753;BME280;11543;43.144;24.684;2023-03-16T06:38:12;98402.81;;;5.17;79.10
22753;BME280;11543;43.144;24.684;2023-03-16T06:40:39;98404.28;;;5.21;78.97
22753;BME280;11543;43.144;24.684;2023-03-16T06:43:05;98418.28;;;5.23;79.50
22753;BME280;11543;43.144;24.684;2023-03-16T06:45:31;98422.38;;;5.27;79.41
22753;BME280;11543;43.144;24.684;2023-03-16T06:47:57;98405.03;;;5.11;79.32
22753;BME280;11543;43.144;24.684;2023-03-16T06:50:23;98416.19;;;5.05;80.02
22753;BME280;11543;43.144;24.684;2023-03-16T06:52:48;98429.09;;;5.10;79.99
22753;BME280;11543;43.144;24.684;2023-03-16T06:55:14;98433.88;;;5.16;80.38
22753;BME280;11543;43.144;24.684;2023-03-16T06:57:41;98426.56;;;5.08;81.02
22753;BME280;11543;43.144;24.684;2023-03-16T07:00:08;98437.22;;;5.08;80.53
22753;BME280;11543;43.144;24.684;2023-03-16T07:02:35;98434.03;;;5.15;80.94
22753;BME280;11543;43.144;24.684;2023-03-16T07:05:04;98448.50;;;5.22;80.52
22753;BME280;11543;43.144;24.684;2023-03-16T07:07:31;98441.16;;;5.14;80.91
22753;BME280;11543;43.144;24.684;2023-03-16T07:09:58;98440.84;;;5.07;81.59
22753;BME280;11543;43.144;24.684;2023-03-16T07:12:23;98440.00;;;5.07;80.91
22753;BME280;11543;43.144;24.684;2023-03-16T07:14:49;98459.06;;;5.12;80.33
22753;BME280;11543;43.144;24.684;2023-03-16T07:17:15;98449.16;;;4.93;80.78
22753;BME280;11543;43.144;24.684;2023-03-16T07:19:41;98460.16;;;5.09;81.29
22753;BME280;11543;43.144;24.684;2023-03-16T07:22:08;98465.47;;;5.09;81.05
22753;BME280;11543;43.144;24.684;2023-03-16T07:24:33;98465.41;;;5.00;81.38
22753;BME280;11543;43.144;24.684;2023-03-16T07:26:59;98461.47;;;4.94;81.68
22753;BME280;11543;43.144;24.684;2023-03-16T07:29:27;98476.13;;;5.09;82.06
22753;BME280;11543;43.144;24.684;2023-03-16T07:31:53;98485.84;;;4.99;82.24
22753;BME280;11543;43.144;24.684;2023-03-16T07:34:19;98485.31;;;5.05;82.18
22753;BME280;11543;43.144;24.684;2023-03-16T07:36:46;98490.91;;;5.02;82.54
22753;BME280;11543;43.144;24.684;2023-03-16T07:39:13;98496.22;;;5.02;82.22
22753;BME280;11543;43.144;24.684;2023-03-16T07:41:42;98492.25;;;4.97;81.95
22753;BME280;11543;43.144;24.684;2023-03-16T07:44:08;98502.72;;;5.09;82.25
22753;BME280;11543;43.144;24.684;2023-03-16T07:46:36;98498.16;;;5.00;82.11
22753;BME280;11543;43.144;24.684;2023-03-16T07:49:01;98506.84;;;5.02;81.45
22753;BME280;11543;43.144;24.684;2023-03-16T07:51:27;98501.28;;;5.05;82.14
22753;BME280;11543;43.144;24.684;2023-03-16T07:53:53;98485.84;;;4.99;81.70
22753;BME280;11543;43.144;24.684;2023-03-16T07:56:19;98513.09;;;5.12;81.14
22753;BME280;11543;43.144;24.684;2023-03-16T07:58:45;98509.00;;;5.08;81.63
22753;BME280;11543;43.144;24.684;2023-03-16T08:01:11;98499.59;;;5.04;81.74
22753;BME280;11543;43.144;24.684;2023-03-16T08:03:38;98514.19;;;5.10;81.12
22753;BME280;11543;43.144;24.684;2023-03-16T08:06:04;98509.75;;;4.99;81.69
22753;BME280;11543;43.144;24.684;2023-03-16T08:08:31;98516.50;;;5.03;81.24
22753;BME280;11543;43.144;24.684;2023-03-16T08:10:59;98513.84;;;5.03;81.64
22753;BME280;11543;43.144;24.684;2023-03-16T08:13:25;98509.63;;;5.01;81.46
22753;BME280;11543;43.144;24.684;2023-03-16T08:15:51;98511.84;;;4.96;81.61
22753;BME280;11543;43.144;24.684;2023-03-16T08:18:26;98519.69;;;4.97;81.84
22753;BME280;11543;43.144;24.684;2023-03-16T08:20:52;98519.22;;;4.92;81.99
22753;BME280;11543;43.144;24.684;2023-03-16T08:23:19;98522.72;;;4.93;82.04
22753;BME280;11543;43.144;24.684;2023-03-16T08:25:45;98508.13;;;4.87;82.20
22753;BME280;11543;43.144;24.684;2023-03-16T08:28:11;98522.81;;;5.02;81.74
22753;BME280;11543;43.144;24.684;2023-03-16T08:30:43;98527.59;;;5.08;81.50
22753;BME280;11543;43.144;24.684;2023-03-16T08:33:08;98523.97;;;5.09;81.68
22753;BME280;11543;43.144;24.684;2023-03-16T08:35:34;98526.19;;;5.04;81.23
22753;BME280;11543;43.144;24.684;2023-03-16T08:38:00;98533.69;;;4.99;81.19
22753;BME280;11543;43.144;24.684;2023-03-16T08:40:25;98516.66;;;5.02;81.90
22753;BME280;11543;43.144;24.684;2023-03-16T08:42:53;98521.13;;;5.01;81.86
22753;BME280;11543;43.144;24.684;2023-03-16T08:45:20;98523.06;;;4.99;82.07
22753;BME280;11543;43.144;24.684;2023-03-16T08:47:46;98516.06;;;4.98;81.93
22753;BME280;11543;43.144;24.684;2023-03-16T08:50:11;98511.84;;;4.96;82.24
22753;BME280;11543;43.144;24.684;2023-03-16T08:52:40;98523.19;;;4.98;82.36
22753;BME280;11543;43.144;24.684;2023-03-16T08:55:07;98500.69;;;5.02;81.94
22753;BME280;11543;43.144;24.684;2023-03-16T08:57:35;98512.81;;;5.16;81.81
22753;BME280;11543;43.144;24.684;2023-03-16T09:00:07;98499.84;;;5.01;81.87
22753;BME280;11543;43.144;24.684;2023-03-16T09:02:42;98522.50;;;5.17;81.79
22753;BME280;11543;43.144;24.684;2023-03-16T09:05:09;98506.34;;;5.08;82.34
22753;BME280;11543;43.144;24.684;2023-03-16T09:07:36;98521.28;;;5.21;82.01
22753;BME280;11543;43.144;24.684;2023-03-16T09:10:02;98501.59;;;5.12;81.85
22753;BME280;11543;43.144;24.684;2023-03-16T09:12:31;98513.19;;;5.22;81.82
22753;BME280;11543;43.144;24.684;2023-03-16T09:14:56;98511.09;;;5.26;82.07
22753;BME280;11543;43.144;24.684;2023-03-16T09:17:22;98502.88;;;5.29;82.03
22753;BME280;11543;43.144;24.684;2023-03-16T09:19:48;98513.75;;;5.26;81.52
22753;BME280;11543;43.144;24.684;2023-03-16T09:22:14;98511.44;;;5.32;80.88
22753;BME280;11543;43.144;24.684;2023-03-16T09:24:39;98515.06;;;5.31;80.78
22753;BME280;11543;43.144;24.684;2023-03-16T09:27:05;98523.94;;;5.41;80.80
22753;BME280;11543;43.144;24.684;2023-03-16T09:29:31;98530.38;;;5.39;79.82
22753;BME280;11543;43.144;24.684;2023-03-16T09:31:57;98531.28;;;5.49;79.50
22753;BME280;11543;43.144;24.684;2023-03-16T09:34:23;98547.81;;;5.53;79.06
22753;BME280;11543;43.144;24.684;2023-03-16T09:36:49;98545.47;;;5.59;78.86
22753;BME280;11543;43.144;24.684;2023-03-16T09:39:14;98553.13;;;5.73;77.75
22753;BME280;11543;43.144;24.684;2023-03-16T09:44:55;98569.28;;;5.82;77.42
22753;BME280;11543;43.144;24.684;2023-03-16T09:47:28;98576.50;;;5.91;75.88
22753;BME280;11543;43.144;24.684;2023-03-16T09:50:00;98572.78;;;6.03;75.84
22753;BME280;11543;43.144;24.684;2023-03-16T09:52:54;98581.25;;;6.08;75.81
22753;BME280;11543;43.144;24.684;2023-03-16T09:55:27;98584.88;;;6.07;74.88
22753;BME280;11543;43.144;24.684;2023-03-16T09:57:57;98586.56;;;6.08;75.21
22753;BME280;11543;43.144;24.684;2023-03-16T10:00:26;98579.63;;;6.26;75.17
22753;BME280;11543;43.144;24.684;2023-03-16T10:05:39;98581.97;;;6.60;73.71
22753;BME280;11543;43.144;24.684;2023-03-16T10:08:11;98595.16;;;6.61;72.72
22753;BME280;11543;43.144;24.684;2023-03-16T10:16:06;98581.19;;;6.88;72.21
22753;BME280;11543;43.144;24.684;2023-03-16T10:18:43;98597.25;;;7.08;71.53
22753;BME280;11543;43.144;24.684;2023-03-16T10:21:11;98592.59;;;7.10;71.11
22753;BME280;11543;43.144;24.684;2023-03-16T10:23:38;98589.66;;;7.13;70.41
22753;BME280;11543;43.144;24.684;2023-03-16T10:26:21;98592.75;;;7.18;70.14
22753;BME280;11543;43.144;24.684;2023-03-16T10:28:49;98606.16;;;6.87;70.27
22753;BME280;11543;43.144;24.684;2023-03-16T10:31:16;98604.13;;;7.00;70.40
22753;BME280;11543;43.144;24.684;2023-03-16T10:33:44;98596.66;;;6.94;70.15
22753;BME280;11543;43.144;24.684;2023-03-16T10:36:17;98609.78;;;6.77;70.21
22753;BME280;11543;43.144;24.684;2023-03-16T10:38:55;98609.44;;;6.51;70.09
22753;BME280;11543;43.144;24.684;2023-03-16T10:41:23;98602.97;;;6.44;70.39
22753;BME280;11543;43.144;24.684;2023-03-16T10:43:59;98613.91;;;6.41;70.27
22753;BME280;11543;43.144;24.684;2023-03-16T10:46:42;98618.97;;;6.44;70.24
22753;BME280;11543;43.144;24.684;2023-03-16T10:49:26;98623.41;;;6.33;70.56
22753;BME280;11543;43.144;24.684;2023-03-16T10:51:54;98620.31;;;6.28;70.25
22753;BME280;11543;43.144;24.684;2023-03-16T10:54:39;98611.59;;;6.26;71.19
22753;BME280;11543;43.144;24.684;2023-03-16T10:57:35;98619.59;;;6.26;71.43
22753;BME280;11543;43.144;24.684;2023-03-16T11:00:29;98616.31;;;6.13;72.04
22753;BME280;11543;43.144;24.684;2023-03-16T11:02:57;98621.97;;;6.29;71.69
22753;BME280;11543;43.144;24.684;2023-03-16T11:05:29;98611.28;;;6.20;71.78
22753;BME280;11543;43.144;24.684;2023-03-16T11:08:05;98618.63;;;6.27;71.52
22753;BME280;11543;43.144;24.684;2023-03-16T11:10:44;98597.56;;;6.24;71.33
22753;BME280;11543;43.144;24.684;2023-03-16T11:15:47;98622.34;;;6.46;70.78
22753;BME280;11543;43.144;24.684;2023-03-16T11:18:37;98618.84;;;6.55;70.87
22753;BME280;11543;43.144;24.684;2023-03-16T11:24:09;98621.78;;;6.52;70.77
22753;BME280;11543;43.144;24.684;2023-03-16T11:26:39;98611.41;;;6.49;71.38
22753;BME280;11543;43.144;24.684;2023-03-16T11:32:04;98627.94;;;6.43;72.14
22753;BME280;11543;43.144;24.684;2023-03-16T11:34:31;98612.06;;;6.41;72.46
22753;BME280;11543;43.144;24.684;2023-03-16T11:42:37;98608.56;;;6.41;73.71
22753;BME280;11543;43.144;24.684;2023-03-16T11:45:18;98628.25;;;6.59;73.31
22753;BME280;11543;43.144;24.684;2023-03-16T11:51:00;98635.06;;;6.82;73.45
22753;BME280;11543;43.144;24.684;2023-03-16T11:59:16;98632.25;;;6.84;73.34
22753;BME280;11543;43.144;24.684;2023-03-16T12:01:50;98633.38;;;6.81;74.56
22753;BME280;11543;43.144;24.684;2023-03-16T12:10:10;98616.94;;;6.66;75.12
22753;BME280;11543;43.144;24.684;2023-03-16T12:16:04;98622.44;;;6.84;74.28
22753;BME280;11543;43.144;24.684;2023-03-16T12:18:58;98620.78;;;6.93;73.79
22753;BME280;11543;43.144;24.684;2023-03-16T12:21:33;98625.88;;;6.96;73.69
22753;BME280;11543;43.144;24.684;2023-03-16T12:24:24;98629.09;;;6.99;73.41
22753;BME280;11543;43.144;24.684;2023-03-16T12:26:52;98624.56;;;6.90;73.96
22753;BME280;11543;43.144;24.684;2023-03-16T12:29:34;98639.09;;;7.17;73.20
22753;BME280;11543;43.144;24.684;2023-03-16T12:32:14;98648.06;;;7.16;72.85
22753;BME280;11543;43.144;24.684;2023-03-16T12:43:04;98648.44;;;6.52;75.57
22753;BME280;11543;43.144;24.684;2023-03-16T12:51:58;98656.53;;;6.41;75.78
22753;BME280;11543;43.144;24.684;2023-03-16T12:54:24;98647.91;;;6.27;76.15
22753;BME280;11543;43.144;24.684;2023-03-16T12:56:51;98646.94;;;6.28;76.23
22753;BME280;11543;43.144;24.684;2023-03-16T12:59:21;98663.78;;;6.29;76.62
22753;BME280;11543;43.144;24.684;2023-03-16T13:01:52;98663.72;;;6.19;76.61
22753;BME280;11543;43.144;24.684;2023-03-16T13:04:40;98678.13;;;6.37;77.09
22753;BME280;11543;43.144;24.684;2023-03-16T13:07:29;98677.22;;;6.27;76.66
22753;BME280;11543;43.144;24.684;2023-03-16T13:10:15;98674.69;;;6.26;77.18
22753;BME280;11543;43.144;24.684;2023-03-16T13:12:42;98687.22;;;6.35;76.60
22753;BME280;11543;43.144;24.684;2023-03-16T13:17:49;98688.59;;;6.29;76.30
22753;BME280;11543;43.144;24.684;2023-03-16T13:20:31;98675.94;;;6.52;75.96
22753;BME280;11543;43.144;24.684;2023-03-16T13:28:42;98691.50;;;6.87;75.16
22753;BME280;11543;43.144;24.684;2023-03-16T13:31:35;98699.06;;;6.82;74.85
22753;BME280;11543;43.144;24.684;2023-03-16T13:34:02;98698.22;;;6.82;75.22
22753;BME280;11543;43.144;24.684;2023-03-16T13:36:29;98694.72;;;6.81;74.98
22753;BME280;11543;43.144;24.684;2023-03-16T13:39:06;98705.38;;;6.81;75.56
22753;BME280;11543;43.144;24.684;2023-03-16T13:41:38;98706.63;;;6.77;75.58
22753;BME280;11543;43.144;24.684;2023-03-16T13:44:10;98702.94;;;6.68;75.85
22753;BME280;11543;43.144;24.684;2023-03-16T13:46:37;98707.59;;;6.46;76.50
22753;BME280;11543;43.144;24.684;2023-03-16T13:49:03;98702.00;;;6.49;76.96
22753;BME280;11543;43.144;24.684;2023-03-16T13:51:33;98704.28;;;6.53;77.17
22753;BME280;11543;43.144;24.684;2023-03-16T13:54:17;98699.47;;;6.47;76.89
22753;BME280;11543;43.144;24.684;2023-03-16T13:56:43;98696.94;;;6.46;77.48
22753;BME280;11543;43.144;24.684;2023-03-16T13:59:09;98700.75;;;6.53;77.19
22753;BME280;11543;43.144;24.684;2023-03-16T14:01:35;98696.94;;;6.46;77.45
22753;BME280;11543;43.144;24.684;2023-03-16T14:04:05;98713.19;;;6.43;78.14
22753;BME280;11543;43.144;24.684;2023-03-16T14:06:37;98705.13;;;6.54;78.04
22753;BME280;11543;43.144;24.684;2023-03-16T14:09:11;98715.31;;;6.79;77.44
22753;BME280;11543;43.144;24.684;2023-03-16T14:11:39;98707.50;;;6.87;77.18
22753;BME280;11543;43.144;24.684;2023-03-16T14:14:22;98713.91;;;7.06;76.87
22753;BME280;11543;43.144;24.684;2023-03-16T14:16:48;98717.31;;;7.17;76.53
22753;BME280;11543;43.144;24.684;2023-03-16T14:19:23;98701.72;;;7.13;75.77
22753;BME280;11543;43.144;24.684;2023-03-16T14:21:50;98726.16;;;7.18;75.40
22753;BME280;11543;43.144;24.684;2023-03-16T14:26:51;98726.47;;;7.34;75.43
22753;BME280;11543;43.144;24.684;2023-03-16T14:29:29;98718.03;;;7.29;75.12
22753;BME280;11543;43.144;24.684;2023-03-16T14:31:57;98738.97;;;7.43;75.14
22753;BME280;11543;43.144;24.684;2023-03-16T14:34:34;98722.00;;;7.44;74.97
22753;BME280;11543;43.144;24.684;2023-03-16T14:37:07;98723.97;;;7.52;74.43
22753;BME280;11543;43.144;24.684;2023-03-16T14:39:34;98723.81;;;7.53;74.56
22753;BME280;11543;43.144;24.684;2023-03-16T14:42:04;98732.97;;;7.60;74.30
22753;BME280;11543;43.144;24.684;2023-03-16T14:45:18;98750.97;;;7.78;73.89
22753;BME280;11543;43.144;24.684;2023-03-16T14:51:23;98737.03;;;7.64;73.64
22753;BME280;11543;43.144;24.684;2023-03-16T14:53:54;98742.19;;;7.37;74.29
22753;BME280;11543;43.144;24.684;2023-03-16T14:56:32;98743.84;;;7.19;75.22
22753;BME280;11543;43.144;24.684;2023-03-16T14:58:59;98749.44;;;7.06;75.45
22753;BME280;11543;43.144;24.684;2023-03-16T15:01:25;98741.53;;;6.95;76.28
22753;BME280;11543;43.144;24.684;2023-03-16T15:03:51;98768.84;;;6.87;77.42
22753;BME280;11543;43.144;24.684;2023-03-16T15:06:17;98757.81;;;6.71;77.79
22753;BME280;11543;43.144;24.684;2023-03-16T15:08:45;98772.56;;;6.75;77.89
22753;BME280;11543;43.144;24.684;2023-03-16T15:11:15;98762.97;;;6.63;78.74
22753;BME280;11543;43.144;24.684;2023-03-16T15:13:54;98777.72;;;6.67;78.74
22753;BME280;11543;43.144;24.684;2023-03-16T15:16:31;98771.66;;;6.65;79.21
22753;BME280;11543;43.144;24.684;2023-03-16T15:18:59;98776.56;;;6.60;79.63
22753;BME280;11543;43.144;24.684;2023-03-16T15:21:36;98777.22;;;6.52;79.80
22753;BME280;11543;43.144;24.684;2023-03-16T15:24:07;98771.38;;;6.37;79.91
22753;BME280;11543;43.144;24.684;2023-03-16T15:26:38;98776.97;;;6.34;80.15
22753;BME280;11543;43.144;24.684;2023-03-16T15:29:05;98782.63;;;6.20;80.78
22753;BME280;11543;43.144;24.684;2023-03-16T15:31:33;98786.75;;;6.13;81.26
22753;BME280;11543;43.144;24.684;2023-03-16T15:34:05;98800.28;;;6.21;81.76
22753;BME280;11543;43.144;24.684;2023-03-16T15:36:31;98796.69;;;6.11;81.34
22753;BME280;11543;43.144;24.684;2023-03-16T15:38:57;98811.47;;;6.04;81.95
22753;BME280;11543;43.144;24.684;2023-03-16T15:41:23;98820.09;;;6.07;82.42
22753;BME280;11543;43.144;24.684;2023-03-16T15:43:50;98811.84;;;5.99;82.21
22753;BME280;11543;43.144;24.684;2023-03-16T15:46:16;98824.84;;;5.93;82.99
22753;BME280;11543;43.144;24.684;2023-03-16T15:48:42;98808.88;;;5.82;82.72
22753;BME280;11543;43.144;24.684;2023-03-16T15:55:03;98830.91;;;5.72;83.53
22753;BME280;11543;43.144;24.684;2023-03-16T16:11:28;98840.06;;;5.36;85.52
22753;BME280;11543;43.144;24.684;2023-03-16T16:23:59;98880.38;;;5.86;84.88
22753;BME280;11543;43.144;24.684;2023-03-16T16:26:56;98884.13;;;5.84;84.62
22753;BME280;11543;43.144;24.684;2023-03-16T16:33:22;98893.81;;;5.96;84.13
22753;BME280;11543;43.144;24.684;2023-03-16T16:35:59;98899.59;;;6.01;84.06